sensor_id;sensor_type;location;lat;lon;timestamp;P1;durP1;ratioP1;P2;durP2;ratioP2
19919;SDS011;10122;50.074;19.920;2023-03-13T00:01:23;13.15;;;6.18;;
19919;SDS011;10122;50.074;19.920;2023-03-13T00:03:51;11.40;;;5.80;;
19919;SDS011;10122;50.074;19.920;2023-03-13T00:06:19;13.25;;;5.90;;
19919;SDS011;10122;50.074;19.920;2023-03-13T00:08:45;12.57;;;5.60;;
19919;SDS011;10122;50.074;19.920;2023-03-13T00:11:11;11.52;;;5.60;;
19919;SDS011;10122;50.074;19.920;2023-03-13T00:13:39;11.82;;;5.70;;
19919;SDS011;10122;50.074;19.920;2023-03-13T00:16:07;11.10;;;5.57;;
19919;SDS011;10122;50.074;19.920;2023-03-13T00:18:34;11.10;;;5.50;;
19919;SDS011;10122;50.074;19.920;2023-03-13T00:21:01;11.50;;;5.40;;
19919;SDS011;10122;50.074;19.920;2023-03-13T00:23:29;11.18;;;5.38;;
19919;SDS011;10122;50.074;19.920;2023-03-13T00:26:00;8.95;;;4.68;;
19919;SDS011;10122;50.074;19.920;2023-03-13T00:28:28;8.85;;;4.47;;
19919;SDS011;10122;50.074;19.920;2023-03-13T00:31:02;9.60;;;4.80;;
19919;SDS011;10122;50.074;19.920;2023-03-13T00:33:30;11.50;;;4.55;;
19919;SDS011;10122;50.074;19.920;2023-03-13T00:35:58;10.73;;;5.22;;
19919;SDS011;10122;50.074;19.920;2023-03-13T00:38:29;13.35;;;5.88;;
19919;SDS011;10122;50.074;19.920;2023-03-13T00:41:03;9.70;;;5.07;;
19919;SDS011;10122;50.074;19.920;2023-03-13T00:43:37;10.90;;;5.20;;
19919;SDS011;10122;50.074;19.920;2023-03-13T00:46:03;11.73;;;5.57;;
19919;SDS011;10122;50.074;19.920;2023-03-13T00:48:29;11.68;;;5.40;;
19919;SDS011;10122;50.074;19.920;2023-03-13T00:50:57;10.32;;;5.40;;
19919;SDS011;10122;50.074;19.920;2023-03-13T00:53:22;13.02;;;5.22;;
19919;SDS011;10122;50.074;19.920;2023-03-13T00:55:56;12.15;;;5.80;;
19919;SDS011;10122;50.074;19.920;2023-03-13T00:58:30;12.68;;;5.85;;
19919;SDS011;10122;50.074;19.920;2023-03-13T01:01:04;12.30;;;5.90;;
19919;SDS011;10122;50.074;19.920;2023-03-13T01:03:32;12.35;;;6.15;;
19919;SDS011;10122;50.074;19.920;2023-03-13T01:05:58;12.38;;;5.63;;
19919;SDS011;10122;50.074;19.920;2023-03-13T01:08:26;10.68;;;5.78;;
19919;SDS011;10122;50.074;19.920;2023-03-13T01:10:57;14.27;;;5.60;;
19919;SDS011;10122;50.074;19.920;2023-03-13T01:13:28;10.60;;;5.10;;
19919;SDS011;10122;50.074;19.920;2023-03-13T01:15:55;10.70;;;4.95;;
19919;SDS011;10122;50.074;19.920;2023-03-13T01:18:21;9.68;;;4.82;;
19919;SDS011;10122;50.074;19.920;2023-03-13T01:20:46;7.77;;;4.27;;
19919;SDS011;10122;50.074;19.920;2023-03-13T01:23:12;7.97;;;4.38;;
19919;SDS011;10122;50.074;19.920;2023-03-13T01:25:38;6.22;;;3.72;;
19919;SDS011;10122;50.074;19.920;2023-03-13T01:28:04;6.03;;;3.33;;
19919;SDS011;10122;50.074;19.920;2023-03-13T01:30:30;5.27;;;3.30;;
19919;SDS011;10122;50.074;19.920;2023-03-13T01:32:56;8.30;;;3.63;;
19919;SDS011;10122;50.074;19.920;2023-03-13T01:35:22;6.85;;;3.50;;
19919;SDS011;10122;50.074;19.920;2023-03-13T01:37:47;6.00;;;3.50;;
19919;SDS011;10122;50.074;19.920;2023-03-13T01:40:13;5.38;;;3.03;;
19919;SDS011;10122;50.074;19.920;2023-03-13T01:42:52;6.25;;;3.03;;
19919;SDS011;10122;50.074;19.920;2023-03-13T01:48:28;5.55;;;3.03;;
19919;SDS011;10122;50.074;19.920;2023-03-13T01:51:27;4.68;;;2.65;;
19919;SDS011;10122;50.074;19.920;2023-03-13T01:54:00;4.72;;;2.70;;
19919;SDS011;10122;50.074;19.920;2023-03-13T01:59:08;5.72;;;2.85;;
19919;SDS011;10122;50.074;19.920;2023-03-13T02:01:36;4.88;;;2.63;;
19919;SDS011;10122;50.074;19.920;2023-03-13T02:04:03;4.05;;;2.60;;
19919;SDS011;10122;50.074;19.920;2023-03-13T02:06:30;4.18;;;2.72;;
19919;SDS011;10122;50.074;19.920;2023-03-13T02:09:03;4.97;;;3.17;;
19919;SDS011;10122;50.074;19.920;2023-03-13T02:11:52;4.10;;;2.83;;
19919;SDS011;10122;50.074;19.920;2023-03-13T02:14:20;4.20;;;2.63;;
19919;SDS011;10122;50.074;19.920;2023-03-13T02:16:49;4.40;;;2.57;;
19919;SDS011;10122;50.074;19.920;2023-03-13T02:19:18;4.28;;;2.80;;
19919;SDS011;10122;50.074;19.920;2023-03-13T02:21:54;3.88;;;2.50;;
19919;SDS011;10122;50.074;19.920;2023-03-13T02:27:04;4.60;;;2.70;;
19919;SDS011;10122;50.074;19.920;2023-03-13T02:29:30;4.18;;;2.60;;
19919;SDS011;10122;50.074;19.920;2023-03-13T02:31:57;4.97;;;2.72;;
19919;SDS011;10122;50.074;19.920;2023-03-13T02:34:24;3.50;;;2.60;;
19919;SDS011;10122;50.074;19.920;2023-03-13T02:36:52;4.32;;;2.70;;
19919;SDS011;10122;50.074;19.920;2023-03-13T02:39:19;5.03;;;2.95;;
19919;SDS011;10122;50.074;19.920;2023-03-13T02:41:47;4.72;;;2.80;;
19919;SDS011;10122;50.074;19.920;2023-03-13T02:44:15;4.15;;;2.72;;
19919;SDS011;10122;50.074;19.920;2023-03-13T02:46:48;5.60;;;2.80;;
19919;SDS011;10122;50.074;19.920;2023-03-13T02:49:20;4.85;;;2.90;;
19919;SDS011;10122;50.074;19.920;2023-03-13T02:51:51;5.53;;;2.92;;
19919;SDS011;10122;50.074;19.920;2023-03-13T02:54:21;4.63;;;2.85;;
19919;SDS011;10122;50.074;19.920;2023-03-13T02:56:50;5.38;;;2.90;;
19919;SDS011;10122;50.074;19.920;2023-03-13T02:59:19;4.85;;;3.10;;
19919;SDS011;10122;50.074;19.920;2023-03-13T03:01:45;4.20;;;2.57;;
19919;SDS011;10122;50.074;19.920;2023-03-13T03:04:11;7.15;;;2.97;;
19919;SDS011;10122;50.074;19.920;2023-03-13T03:06:37;4.97;;;2.80;;
19919;SDS011;10122;50.074;19.920;2023-03-13T03:09:03;4.70;;;2.70;;
19919;SDS011;10122;50.074;19.920;2023-03-13T03:11:29;4.75;;;2.88;;
19919;SDS011;10122;50.074;19.920;2023-03-13T03:13:55;5.55;;;3.00;;
19919;SDS011;10122;50.074;19.920;2023-03-13T03:16:20;4.18;;;2.70;;
19919;SDS011;10122;50.074;19.920;2023-03-13T03:18:46;6.50;;;2.85;;
19919;SDS011;10122;50.074;19.920;2023-03-13T03:21:12;4.55;;;2.90;;
19919;SDS011;10122;50.074;19.920;2023-03-13T03:23:38;5.70;;;3.20;;
19919;SDS011;10122;50.074;19.920;2023-03-13T03:26:04;4.20;;;2.72;;
19919;SDS011;10122;50.074;19.920;2023-03-13T03:28:31;4.40;;;2.70;;
19919;SDS011;10122;50.074;19.920;2023-03-13T03:30:57;3.88;;;2.65;;
19919;SDS011;10122;50.074;19.920;2023-03-13T03:33:27;4.60;;;2.80;;
19919;SDS011;10122;50.074;19.920;2023-03-13T03:35:57;3.70;;;2.70;;
19919;SDS011;10122;50.074;19.920;2023-03-13T03:38:27;4.72;;;2.72;;
19919;SDS011;10122;50.074;19.920;2023-03-13T03:40:53;4.63;;;2.95;;
19919;SDS011;10122;50.074;19.920;2023-03-13T03:43:19;5.15;;;2.90;;
19919;SDS011;10122;50.074;19.920;2023-03-13T03:45:45;4.18;;;2.80;;
19919;SDS011;10122;50.074;19.920;2023-03-13T03:48:10;4.15;;;2.80;;
19919;SDS011;10122;50.074;19.920;2023-03-13T03:50:36;5.13;;;2.65;;
19919;SDS011;10122;50.074;19.920;2023-03-13T03:53:02;5.03;;;3.00;;
19919;SDS011;10122;50.074;19.920;2023-03-13T03:55:28;4.20;;;2.65;;
19919;SDS011;10122;50.074;19.920;2023-03-13T03:57:54;5.57;;;2.58;;
19919;SDS011;10122;50.074;19.920;2023-03-13T04:00:19;3.70;;;2.60;;
19919;SDS011;10122;50.074;19.920;2023-03-13T04:02:46;5.13;;;2.70;;
19919;SDS011;10122;50.074;19.920;2023-03-13T04:05:12;3.70;;;2.58;;
19919;SDS011;10122;50.074;19.920;2023-03-13T04:07:37;3.95;;;2.70;;
19919;SDS011;10122;50.074;19.920;2023-03-13T04:10:03;4.07;;;2.85;;
19919;SDS011;10122;50.074;19.920;2023-03-13T04:12:29;4.13;;;2.67;;
19919;SDS011;10122;50.074;19.920;2023-03-13T04:14:55;5.45;;;2.80;;
19919;SDS011;10122;50.074;19.920;2023-03-13T04:17:21;4.40;;;3.00;;
19919;SDS011;10122;50.074;19.920;2023-03-13T04:19:46;4.40;;;2.90;;
19919;SDS011;10122;50.074;19.920;2023-03-13T04:22:12;6.30;;;3.22;;
19919;SDS011;10122;50.074;19.920;2023-03-13T04:24:38;4.35;;;2.85;;
19919;SDS011;10122;50.074;19.920;2023-03-13T04:27:03;5.65;;;3.00;;
19919;SDS011;10122;50.074;19.920;2023-03-13T04:29:31;4.72;;;3.00;;
19919;SDS011;10122;50.074;19.920;2023-03-13T04:31:57;5.70;;;3.40;;
19919;SDS011;10122;50.074;19.920;2023-03-13T04:34:23;3.60;;;2.53;;
19919;SDS011;10122;50.074;19.920;2023-03-13T04:36:48;5.43;;;2.80;;
19919;SDS011;10122;50.074;19.920;2023-03-13T04:39:14;6.00;;;2.70;;
19919;SDS011;10122;50.074;19.920;2023-03-13T04:41:40;4.75;;;2.70;;
19919;SDS011;10122;50.074;19.920;2023-03-13T04:44:06;5.45;;;2.78;;
19919;SDS011;10122;50.074;19.920;2023-03-13T04:46:31;4.22;;;2.90;;
19919;SDS011;10122;50.074;19.920;2023-03-13T04:48:57;5.55;;;3.10;;
19919;SDS011;10122;50.074;19.920;2023-03-13T04:51:23;4.47;;;2.80;;
19919;SDS011;10122;50.074;19.920;2023-03-13T04:53:49;4.13;;;2.67;;
19919;SDS011;10122;50.074;19.920;2023-03-13T04:56:22;3.88;;;2.80;;
19919;SDS011;10122;50.074;19.920;2023-03-13T04:58:49;7.05;;;3.17;;
19919;SDS011;10122;50.074;19.920;2023-03-13T05:01:15;6.00;;;3.15;;
19919;SDS011;10122;50.074;19.920;2023-03-13T05:03:41;4.75;;;2.92;;
19919;SDS011;10122;50.074;19.920;2023-03-13T05:06:06;4.93;;;3.03;;
19919;SDS011;10122;50.074;19.920;2023-03-13T05:08:32;5.50;;;3.00;;
19919;SDS011;10122;50.074;19.920;2023-03-13T05:11:00;5.57;;;2.97;;
19919;SDS011;10122;50.074;19.920;2023-03-13T05:13:26;4.20;;;2.90;;
19919;SDS011;10122;50.074;19.920;2023-03-13T05:15:52;6.05;;;3.03;;
19919;SDS011;10122;50.074;19.920;2023-03-13T05:18:18;5.55;;;2.70;;
19919;SDS011;10122;50.074;19.920;2023-03-13T05:20:43;4.55;;;2.92;;
19919;SDS011;10122;50.074;19.920;2023-03-13T05:23:09;5.90;;;3.40;;
19919;SDS011;10122;50.074;19.920;2023-03-13T05:25:35;6.78;;;2.75;;
19919;SDS011;10122;50.074;19.920;2023-03-13T05:28:00;3.53;;;2.78;;
19919;SDS011;10122;50.074;19.920;2023-03-13T05:30:26;6.13;;;2.97;;
19919;SDS011;10122;50.074;19.920;2023-03-13T05:32:52;4.25;;;2.88;;
19919;SDS011;10122;50.074;19.920;2023-03-13T05:35:18;5.00;;;2.80;;
19919;SDS011;10122;50.074;19.920;2023-03-13T05:37:43;5.20;;;3.22;;
19919;SDS011;10122;50.074;19.920;2023-03-13T05:40:10;4.25;;;3.10;;
19919;SDS011;10122;50.074;19.920;2023-03-13T05:42:37;5.53;;;2.92;;
19919;SDS011;10122;50.074;19.920;2023-03-13T05:45:03;5.68;;;3.00;;
19919;SDS011;10122;50.074;19.920;2023-03-13T05:47:29;6.35;;;3.45;;
19919;SDS011;10122;50.074;19.920;2023-03-13T05:49:55;5.22;;;3.20;;
19919;SDS011;10122;50.074;19.920;2023-03-13T05:52:21;5.60;;;3.38;;
19919;SDS011;10122;50.074;19.920;2023-03-13T05:54:47;7.53;;;3.72;;
19919;SDS011;10122;50.074;19.920;2023-03-13T05:57:12;9.50;;;4.20;;
19919;SDS011;10122;50.074;19.920;2023-03-13T05:59:38;7.82;;;4.20;;
19919;SDS011;10122;50.074;19.920;2023-03-13T06:02:04;5.90;;;3.95;;
19919;SDS011;10122;50.074;19.920;2023-03-13T06:04:30;6.45;;;4.10;;
19919;SDS011;10122;50.074;19.920;2023-03-13T06:06:55;5.57;;;2.92;;
19919;SDS011;10122;50.074;19.920;2023-03-13T06:09:21;6.55;;;3.85;;
19919;SDS011;10122;50.074;19.920;2023-03-13T06:11:47;5.35;;;3.55;;
19919;SDS011;10122;50.074;19.920;2023-03-13T06:14:13;7.50;;;3.45;;
19919;SDS011;10122;50.074;19.920;2023-03-13T06:16:39;7.25;;;3.60;;
19919;SDS011;10122;50.074;19.920;2023-03-13T06:19:04;7.50;;;3.65;;
19919;SDS011;10122;50.074;19.920;2023-03-13T06:21:30;7.43;;;3.80;;
19919;SDS011;10122;50.074;19.920;2023-03-13T06:23:56;5.00;;;2.75;;
19919;SDS011;10122;50.074;19.920;2023-03-13T06:26:21;6.88;;;3.05;;
19919;SDS011;10122;50.074;19.920;2023-03-13T06:28:49;8.52;;;2.67;;
19919;SDS011;10122;50.074;19.920;2023-03-13T06:31:15;8.25;;;3.80;;
19919;SDS011;10122;50.074;19.920;2023-03-13T06:33:41;6.53;;;3.30;;
19919;SDS011;10122;50.074;19.920;2023-03-13T06:36:07;5.18;;;2.15;;
19919;SDS011;10122;50.074;19.920;2023-03-13T06:38:34;8.75;;;3.85;;
19919;SDS011;10122;50.074;19.920;2023-03-13T06:41:00;4.25;;;2.40;;
19919;SDS011;10122;50.074;19.920;2023-03-13T06:43:26;6.82;;;3.88;;
19919;SDS011;10122;50.074;19.920;2023-03-13T06:45:52;7.07;;;4.05;;
19919;SDS011;10122;50.074;19.920;2023-03-13T06:48:18;9.18;;;3.20;;
19919;SDS011;10122;50.074;19.920;2023-03-13T06:50:45;7.93;;;3.70;;
19919;SDS011;10122;50.074;19.920;2023-03-13T06:53:14;9.02;;;3.60;;
19919;SDS011;10122;50.074;19.920;2023-03-13T06:55:42;4.07;;;2.72;;
19919;SDS011;10122;50.074;19.920;2023-03-13T06:58:08;8.30;;;3.38;;
19919;SDS011;10122;50.074;19.920;2023-03-13T07:00:34;5.35;;;2.35;;
19919;SDS011;10122;50.074;19.920;2023-03-13T07:03:00;10.10;;;3.58;;
19919;SDS011;10122;50.074;19.920;2023-03-13T07:05:25;7.97;;;2.92;;
19919;SDS011;10122;50.074;19.920;2023-03-13T07:07:51;6.60;;;3.00;;
19919;SDS011;10122;50.074;19.920;2023-03-13T07:10:17;9.02;;;3.50;;
19919;SDS011;10122;50.074;19.920;2023-03-13T07:12:43;7.18;;;3.05;;
19919;SDS011;10122;50.074;19.920;2023-03-13T07:15:09;6.85;;;2.97;;
19919;SDS011;10122;50.074;19.920;2023-03-13T07:17:35;4.32;;;1.95;;
19919;SDS011;10122;50.074;19.920;2023-03-13T07:20:02;4.97;;;2.70;;
19919;SDS011;10122;50.074;19.920;2023-03-13T07:22:29;7.07;;;2.83;;
19919;SDS011;10122;50.074;19.920;2023-03-13T07:24:55;10.50;;;2.85;;
19919;SDS011;10122;50.074;19.920;2023-03-13T07:27:21;6.88;;;2.65;;
19919;SDS011;10122;50.074;19.920;2023-03-13T07:29:47;5.88;;;2.58;;
19919;SDS011;10122;50.074;19.920;2023-03-13T07:32:13;3.28;;;1.75;;
19919;SDS011;10122;50.074;19.920;2023-03-13T07:34:39;5.10;;;2.42;;
19919;SDS011;10122;50.074;19.920;2023-03-13T07:37:08;6.90;;;3.00;;
19919;SDS011;10122;50.074;19.920;2023-03-13T07:39:35;4.68;;;2.38;;
19919;SDS011;10122;50.074;19.920;2023-03-13T07:42:01;4.30;;;2.33;;
19919;SDS011;10122;50.074;19.920;2023-03-13T07:44:27;7.30;;;2.53;;
19919;SDS011;10122;50.074;19.920;2023-03-13T07:46:53;5.95;;;3.00;;
19919;SDS011;10122;50.074;19.920;2023-03-13T07:49:18;7.43;;;2.38;;
19919;SDS011;10122;50.074;19.920;2023-03-13T07:51:44;6.40;;;2.55;;
19919;SDS011;10122;50.074;19.920;2023-03-13T07:54:12;6.13;;;3.00;;
19919;SDS011;10122;50.074;19.920;2023-03-13T07:56:38;4.93;;;1.55;;
19919;SDS011;10122;50.074;19.920;2023-03-13T07:59:04;5.18;;;2.58;;
19919;SDS011;10122;50.074;19.920;2023-03-13T08:01:30;4.90;;;2.25;;
19919;SDS011;10122;50.074;19.920;2023-03-13T08:03:56;7.10;;;2.70;;
19919;SDS011;10122;50.074;19.920;2023-03-13T08:06:23;6.88;;;2.60;;
19919;SDS011;10122;50.074;19.920;2023-03-13T08:08:50;5.97;;;2.65;;
19919;SDS011;10122;50.074;19.920;2023-03-13T08:11:17;5.00;;;2.65;;
19919;SDS011;10122;50.074;19.920;2023-03-13T08:13:44;6.22;;;2.78;;
19919;SDS011;10122;50.074;19.920;2023-03-13T08:16:11;6.68;;;2.50;;
19919;SDS011;10122;50.074;19.920;2023-03-13T08:18:40;4.30;;;1.88;;
19919;SDS011;10122;50.074;19.920;2023-03-13T08:21:08;7.22;;;2.58;;
19919;SDS011;10122;50.074;19.920;2023-03-13T08:23:41;4.85;;;1.83;;
19919;SDS011;10122;50.074;19.920;2023-03-13T08:26:08;3.58;;;1.85;;
19919;SDS011;10122;50.074;19.920;2023-03-13T08:28:34;6.07;;;2.35;;
19919;SDS011;10122;50.074;19.920;2023-03-13T08:31:08;3.53;;;1.70;;
19919;SDS011;10122;50.074;19.920;2023-03-13T08:33:38;2.88;;;1.73;;
19919;SDS011;10122;50.074;19.920;2023-03-13T08:36:23;6.88;;;2.75;;
19919;SDS011;10122;50.074;19.920;2023-03-13T08:38:51;3.72;;;1.77;;
19919;SDS011;10122;50.074;19.920;2023-03-13T08:41:19;9.18;;;2.80;;
19919;SDS011;10122;50.074;19.920;2023-03-13T08:43:46;7.90;;;2.65;;
19919;SDS011;10122;50.074;19.920;2023-03-13T08:46:13;4.80;;;2.00;;
19919;SDS011;10122;50.074;19.920;2023-03-13T08:48:39;6.57;;;2.55;;
19919;SDS011;10122;50.074;19.920;2023-03-13T08:51:09;6.68;;;2.60;;
19919;SDS011;10122;50.074;19.920;2023-03-13T08:53:37;4.03;;;1.77;;
19919;SDS011;10122;50.074;19.920;2023-03-13T08:56:04;8.32;;;3.00;;
19919;SDS011;10122;50.074;19.920;2023-03-13T08:58:40;5.68;;;2.63;;
19919;SDS011;10122;50.074;19.920;2023-03-13T09:01:08;5.53;;;2.40;;
19919;SDS011;10122;50.074;19.920;2023-03-13T09:03:35;5.57;;;2.47;;
19919;SDS011;10122;50.074;19.920;2023-03-13T09:06:01;5.40;;;2.42;;
19919;SDS011;10122;50.074;19.920;2023-03-13T09:08:28;4.70;;;2.22;;
19919;SDS011;10122;50.074;19.920;2023-03-13T09:10:55;6.03;;;2.55;;
19919;SDS011;10122;50.074;19.920;2023-03-13T09:13:28;5.68;;;2.72;;
19919;SDS011;10122;50.074;19.920;2023-03-13T09:15:56;4.45;;;2.17;;
19919;SDS011;10122;50.074;19.920;2023-03-13T09:18:26;9.05;;;2.90;;
19919;SDS011;10122;50.074;19.920;2023-03-13T09:20:52;5.25;;;2.17;;
19919;SDS011;10122;50.074;19.920;2023-03-13T09:23:18;5.43;;;2.08;;
19919;SDS011;10122;50.074;19.920;2023-03-13T09:25:45;5.25;;;1.92;;
19919;SDS011;10122;50.074;19.920;2023-03-13T09:28:10;6.68;;;2.47;;
19919;SDS011;10122;50.074;19.920;2023-03-13T09:30:36;5.00;;;1.60;;
19919;SDS011;10122;50.074;19.920;2023-03-13T09:33:02;4.07;;;1.88;;
19919;SDS011;10122;50.074;19.920;2023-03-13T09:35:28;7.70;;;2.20;;
19919;SDS011;10122;50.074;19.920;2023-03-13T09:37:53;4.18;;;1.52;;
19919;SDS011;10122;50.074;19.920;2023-03-13T09:40:20;5.07;;;1.60;;
19919;SDS011;10122;50.074;19.920;2023-03-13T09:42:52;6.05;;;2.40;;
19919;SDS011;10122;50.074;19.920;2023-03-13T09:45:37;2.97;;;1.67;;
19919;SDS011;10122;50.074;19.920;2023-03-13T09:48:28;5.95;;;2.17;;
19919;SDS011;10122;50.074;19.920;2023-03-13T09:53:43;4.10;;;1.88;;
19919;SDS011;10122;50.074;19.920;2023-03-13T09:56:22;3.55;;;1.85;;
19919;SDS011;10122;50.074;19.920;2023-03-13T10:01:58;4.72;;;1.88;;
19919;SDS011;10122;50.074;19.920;2023-03-13T10:04:34;5.07;;;1.67;;
19919;SDS011;10122;50.074;19.920;2023-03-13T10:07:09;1.65;;;1.17;;
19919;SDS011;10122;50.074;19.920;2023-03-13T10:09:35;4.20;;;1.98;;
19919;SDS011;10122;50.074;19.920;2023-03-13T10:15:34;6.10;;;2.17;;
19919;SDS011;10122;50.074;19.920;2023-03-13T10:19:57;3.85;;;1.83;;
19919;SDS011;10122;50.074;19.920;2023-03-13T10:22:36;7.10;;;2.22;;
19919;SDS011;10122;50.074;19.920;2023-03-13T10:27:57;4.95;;;1.90;;
19919;SDS011;10122;50.074;19.920;2023-03-13T10:30:27;3.70;;;1.35;;
19919;SDS011;10122;50.074;19.920;2023-03-13T10:32:58;7.13;;;2.10;;
19919;SDS011;10122;50.074;19.920;2023-03-13T10:35:31;4.13;;;2.10;;
19919;SDS011;10122;50.074;19.920;2023-03-13T10:38:00;6.82;;;2.15;;
19919;SDS011;10122;50.074;19.920;2023-03-13T10:40:31;8.05;;;2.20;;
19919;SDS011;10122;50.074;19.920;2023-03-13T10:43:14;5.20;;;1.70;;
19919;SDS011;10122;50.074;19.920;2023-03-13T10:45:43;4.35;;;1.77;;
19919;SDS011;10122;50.074;19.920;2023-03-13T10:48:19;6.05;;;2.08;;
19919;SDS011;10122;50.074;19.920;2023-03-13T10:50:46;6.53;;;1.80;;
19919;SDS011;10122;50.074;19.920;2023-03-13T10:56:18;3.72;;;1.58;;
19919;SDS011;10122;50.074;19.920;2023-03-13T10:58:48;4.10;;;1.60;;
19919;SDS011;10122;50.074;19.920;2023-03-13T11:01:17;3.88;;;1.73;;
19919;SDS011;10122;50.074;19.920;2023-03-13T11:03:54;3.45;;;1.50;;
19919;SDS011;10122;50.074;19.920;2023-03-13T11:06:22;3.05;;;1.35;;
19919;SDS011;10122;50.074;19.920;2023-03-13T11:11:28;3.70;;;1.70;;
19919;SDS011;10122;50.074;19.920;2023-03-13T11:14:06;3.47;;;1.70;;
19919;SDS011;10122;50.074;19.920;2023-03-13T11:16:35;3.33;;;1.63;;
19919;SDS011;10122;50.074;19.920;2023-03-13T11:27:24;3.78;;;2.00;;
19919;SDS011;10122;50.074;19.920;2023-03-13T11:32:55;3.95;;;1.50;;
19919;SDS011;10122;50.074;19.920;2023-03-13T11:37:54;2.63;;;1.40;;
19919;SDS011;10122;50.074;19.920;2023-03-13T11:51:05;4.47;;;1.42;;
19919;SDS011;10122;50.074;19.920;2023-03-13T12:01:52;3.10;;;1.70;;
19919;SDS011;10122;50.074;19.920;2023-03-13T12:06:51;1.83;;;1.05;;
19919;SDS011;10122;50.074;19.920;2023-03-13T12:14:31;4.38;;;1.60;;
19919;SDS011;10122;50.074;19.920;2023-03-13T12:16:59;3.63;;;1.60;;
19919;SDS011;10122;50.074;19.920;2023-03-13T12:19:30;4.35;;;1.60;;
19919;SDS011;10122;50.074;19.920;2023-03-13T12:22:06;4.25;;;1.40;;
19919;SDS011;10122;50.074;19.920;2023-03-13T12:24:44;3.58;;;1.95;;
19919;SDS011;10122;50.074;19.920;2023-03-13T12:27:20;3.40;;;1.50;;
19919;SDS011;10122;50.074;19.920;2023-03-13T12:38:13;4.15;;;1.33;;
19919;SDS011;10122;50.074;19.920;2023-03-13T12:40:44;3.20;;;1.42;;
19919;SDS011;10122;50.074;19.920;2023-03-13T12:43:32;3.25;;;1.17;;
19919;SDS011;10122;50.074;19.920;2023-03-13T12:46:04;1.80;;;1.30;;
19919;SDS011;10122;50.074;19.920;2023-03-13T12:51:19;3.97;;;1.02;;
19919;SDS011;10122;50.074;19.920;2023-03-13T12:53:54;2.03;;;0.90;;
19919;SDS011;10122;50.074;19.920;2023-03-13T13:00:20;1.88;;;1.27;;
19919;SDS011;10122;50.074;19.920;2023-03-13T13:02:59;3.42;;;1.15;;
19919;SDS011;10122;50.074;19.920;2023-03-13T13:16:54;3.15;;;1.42;;
19919;SDS011;10122;50.074;19.920;2023-03-13T13:24:51;1.55;;;0.90;;
19919;SDS011;10122;50.074;19.920;2023-03-13T13:32:45;1.20;;;0.90;;
19919;SDS011;10122;50.074;19.920;2023-03-13T13:37:43;3.13;;;1.17;;
19919;SDS011;10122;50.074;19.920;2023-03-13T13:40:20;2.72;;;1.50;;
19919;SDS011;10122;50.074;19.920;2023-03-13T13:45:26;2.90;;;1.45;;
19919;SDS011;10122;50.074;19.920;2023-03-13T13:48:14;2.65;;;1.40;;
19919;SDS011;10122;50.074;19.920;2023-03-13T13:58:58;2.50;;;1.40;;
19919;SDS011;10122;50.074;19.920;2023-03-13T14:01:43;5.60;;;1.55;;
19919;SDS011;10122;50.074;19.920;2023-03-13T14:04:14;2.70;;;1.50;;
19919;SDS011;10122;50.074;19.920;2023-03-13T14:06:56;3.17;;;1.55;;
19919;SDS011;10122;50.074;19.920;2023-03-13T14:09:32;5.75;;;1.23;;
19919;SDS011;10122;50.074;19.920;2023-03-13T14:20:33;2.88;;;1.50;;
19919;SDS011;10122;50.074;19.920;2023-03-13T14:23:10;2.17;;;1.45;;
19919;SDS011;10122;50.074;19.920;2023-03-13T14:25:53;4.03;;;1.45;;
19919;SDS011;10122;50.074;19.920;2023-03-13T14:28:20;2.67;;;1.50;;
19919;SDS011;10122;50.074;19.920;2023-03-13T14:30:53;2.42;;;1.70;;
19919;SDS011;10122;50.074;19.920;2023-03-13T14:33:21;1.95;;;1.35;;
19919;SDS011;10122;50.074;19.920;2023-03-13T14:35:47;2.83;;;1.30;;
19919;SDS011;10122;50.074;19.920;2023-03-13T14:38:15;2.58;;;1.25;;
19919;SDS011;10122;50.074;19.920;2023-03-13T14:40:45;2.85;;;1.90;;
19919;SDS011;10122;50.074;19.920;2023-03-13T14:43:26;3.00;;;1.58;;
19919;SDS011;10122;50.074;19.920;2023-03-13T14:45:52;4.00;;;1.60;;
19919;SDS011;10122;50.074;19.920;2023-03-13T14:51:09;2.95;;;1.65;;
19919;SDS011;10122;50.074;19.920;2023-03-13T14:53:51;2.42;;;1.38;;
19919;SDS011;10122;50.074;19.920;2023-03-13T14:56:29;4.03;;;1.48;;
19919;SDS011;10122;50.074;19.920;2023-03-13T14:59:06;3.20;;;1.50;;
19919;SDS011;10122;50.074;19.920;2023-03-13T15:01:42;1.95;;;1.50;;
19919;SDS011;10122;50.074;19.920;2023-03-13T15:04:09;2.88;;;1.40;;
19919;SDS011;10122;50.074;19.920;2023-03-13T15:06:34;1.73;;;1.50;;
19919;SDS011;10122;50.074;19.920;2023-03-13T15:09:33;1.85;;;1.35;;
19919;SDS011;10122;50.074;19.920;2023-03-13T15:14:35;1.77;;;1.40;;
19919;SDS011;10122;50.074;19.920;2023-03-13T15:17:13;4.35;;;1.50;;
19919;SDS011;10122;50.074;19.920;2023-03-13T15:19:41;1.95;;;1.50;;
19919;SDS011;10122;50.074;19.920;2023-03-13T15:22:14;3.42;;;1.70;;
19919;SDS011;10122;50.074;19.920;2023-03-13T15:24:41;2.42;;;1.60;;
19919;SDS011;10122;50.074;19.920;2023-03-13T15:27:17;2.92;;;1.90;;
19919;SDS011;10122;50.074;19.920;2023-03-13T15:29:45;3.20;;;1.85;;
19919;SDS011;10122;50.074;19.920;2023-03-13T15:34:51;2.67;;;1.65;;
19919;SDS011;10122;50.074;19.920;2023-03-13T15:37:21;2.10;;;1.70;;
19919;SDS011;10122;50.074;19.920;2023-03-13T15:39:46;1.95;;;1.33;;
19919;SDS011;10122;50.074;19.920;2023-03-13T15:42:12;3.30;;;1.90;;
19919;SDS011;10122;50.074;19.920;2023-03-13T15:44:38;2.88;;;2.00;;
19919;SDS011;10122;50.074;19.920;2023-03-13T15:47:04;2.22;;;1.50;;
19919;SDS011;10122;50.074;19.920;2023-03-13T15:49:32;5.35;;;1.70;;
19919;SDS011;10122;50.074;19.920;2023-03-13T15:51:58;4.40;;;1.90;;
19919;SDS011;10122;50.074;19.920;2023-03-13T15:54:23;2.97;;;1.98;;
19919;SDS011;10122;50.074;19.920;2023-03-13T15:56:50;2.70;;;1.80;;
19919;SDS011;10122;50.074;19.920;2023-03-13T15:59:16;3.15;;;1.63;;
19919;SDS011;10122;50.074;19.920;2023-03-13T16:01:43;2.25;;;1.45;;
19919;SDS011;10122;50.074;19.920;2023-03-13T16:04:09;2.03;;;1.60;;
19919;SDS011;10122;50.074;19.920;2023-03-13T16:06:35;4.47;;;2.17;;
19919;SDS011;10122;50.074;19.920;2023-03-13T16:09:03;2.97;;;2.10;;
19919;SDS011;10122;50.074;19.920;2023-03-13T16:11:32;3.17;;;1.98;;
19919;SDS011;10122;50.074;19.920;2023-03-13T16:13:58;4.60;;;1.73;;
19919;SDS011;10122;50.074;19.920;2023-03-13T16:16:25;3.33;;;2.00;;
19919;SDS011;10122;50.074;19.920;2023-03-13T16:18:53;3.67;;;1.77;;
19919;SDS011;10122;50.074;19.920;2023-03-13T16:21:24;5.35;;;2.35;;
19919;SDS011;10122;50.074;19.920;2023-03-13T16:23:51;4.38;;;2.00;;
19919;SDS011;10122;50.074;19.920;2023-03-13T16:26:18;3.83;;;2.00;;
19919;SDS011;10122;50.074;19.920;2023-03-13T16:28:46;3.58;;;2.10;;
19919;SDS011;10122;50.074;19.920;2023-03-13T16:31:14;3.75;;;1.95;;
19919;SDS011;10122;50.074;19.920;2023-03-13T16:33:42;4.82;;;2.30;;
19919;SDS011;10122;50.074;19.920;2023-03-13T16:36:12;3.85;;;2.10;;
19919;SDS011;10122;50.074;19.920;2023-03-13T16:38:40;2.75;;;2.03;;
19919;SDS011;10122;50.074;19.920;2023-03-13T16:41:07;3.92;;;1.95;;
19919;SDS011;10122;50.074;19.920;2023-03-13T16:43:34;4.57;;;2.30;;
19919;SDS011;10122;50.074;19.920;2023-03-13T16:45:59;4.65;;;2.20;;
19919;SDS011;10122;50.074;19.920;2023-03-13T16:48:25;2.85;;;1.30;;
19919;SDS011;10122;50.074;19.920;2023-03-13T16:50:51;4.13;;;2.20;;
19919;SDS011;10122;50.074;19.920;2023-03-13T16:53:16;5.32;;;2.40;;
19919;SDS011;10122;50.074;19.920;2023-03-13T16:55:42;3.65;;;2.35;;
19919;SDS011;10122;50.074;19.920;2023-03-13T16:58:09;5.05;;;2.45;;